Latest Weather Observations for Amberley

IDQ60801

Issued at 10:02 pm EST Sunday 29 March 2015 (issued every 30 minutes, with the page automatically refreshed every 10 minutes)

About weather observations | Map of weather stations | Latest weather observations for QLD | Other Formats
Station Details ID: 040004 Name: AMBERLEY AMO Lat: -27.63 Lon: 152.71 Height: 24.2 m
Data from the previous 72 hours. | See also: Recent months at Amberley
Date/Time
EST
Temp
°C
App
Temp
°C
Dew
Point
Rel
Hum
%
Delta-T
°C
Wind Press
QNH
hPa
Press
MSL
hPa
Rain
since 9 am
mm
Dir
 
Spd
km/h
Gust
km/h
Spd
kts
Gust
kts
29/09:30pm 20.4 21.5 16.6 79 2.3 SE 6 7 3 4 1023.0 - 0.0
29/07:30pm 23.0 23.3 16.0 64 4.2 ENE 9 13 5 7 1022.3 - 0.0
29/07:00pm 23.3 22.9 16.2 64 4.3 E 13 17 7 9 1021.8 - 0.0
29/06:30pm 23.8 22.1 15.7 60 4.9 ENE 19 26 10 14 1021.3 - 0.0
29/06:00pm 24.3 22.5 15.5 58 5.3 NE 19 26 10 14 1020.9 1020.9 0.0
29/05:30pm 25.0 23.7 15.9 57 5.5 NE 17 24 9 13 1020.7 - 0.0
29/05:00pm 26.0 24.3 15.8 53 6.2 NE 19 28 10 15 1020.2 - 0.0
29/04:30pm 26.8 24.2 16.0 51 6.6 ENE 24 30 13 16 1020.2 - 0.0
29/04:00pm 27.1 25.1 16.4 52 6.6 NE 22 33 12 18 1020.2 - 0.0
29/03:30pm 27.5 25.4 16.1 49 7.0 NE 22 30 12 16 1019.9 - 0.0
29/03:00pm 28.6 28.2 16.3 47 7.6 NE 13 28 7 15 1019.9 1019.8 0.0
29/02:30pm 27.6 26.2 15.5 47 7.4 NE 17 28 9 15 1020.1 - 0.0
29/02:00pm 28.5 27.4 15.4 45 8.0 NE 15 26 8 14 1020.3 - 0.0
29/01:30pm 28.1 27.7 15.3 45 7.8 NNE 11 19 6 10 1020.7 - 0.0
29/01:00pm 27.6 26.8 16.0 49 7.1 ENE 15 24 8 13 1020.8 - 0.0
29/12:30pm 28.6 28.0 16.7 48 7.4 NE 15 22 8 12 1021.3 - 0.0
29/12:00pm 27.6 26.5 16.4 50 6.9 ENE 17 26 9 14 1021.8 1021.8 0.0
29/11:30am 27.6 26.8 17.0 52 6.6 NE 17 26 9 14 1022.4 - 0.0
29/11:00am 26.0 25.5 16.8 57 5.7 ENE 15 19 8 10 1022.9 - 0.0
29/10:30am 26.5 26.9 17.2 56 5.8 NE 11 19 6 10 1023.2 - 0.0
29/09:30am 24.9 25.7 18.2 66 4.2 NE 11 15 6 8 1023.5 - 0.0
29/09:00am 24.7 25.9 18.3 67 4.0 E 9 13 5 7 1023.4 1023.4 0.0
29/08:30am 24.2 26.8 18.5 70 3.6 ENE 2 7 1 4 1023.2 - 0.0
29/08:00am 23.2 26.2 18.4 74 3.0 CALM 0 0 0 0 1023.0 - 0.0
29/07:00am 19.6 22.5 18.1 91 0.9 CALM 0 0 0 0 1022.1 - 0.0
29/05:30am 18.4 21.0 17.4 94 0.6 CALM 0 0 0 0 1021.2 - 0.0
29/05:00am 18.2 20.8 17.4 95 0.5 CALM 0 0 0 0 1020.7 - 0.0
29/04:30am 18.1 20.7 17.4 96 0.4 CALM 0 0 0 0 1020.3 - 0.0
29/04:00am 17.8 20.2 17.1 96 0.4 CALM 0 0 0 0 1020.2 - 0.0
29/03:30am 18.2 20.7 17.2 94 0.6 CALM 0 0 0 0 1019.9 - 0.0
29/03:00am 18.6 20.0 17.3 92 0.8 SSW 6 7 3 4 1020.0 1019.9 0.0
29/02:30am 18.9 21.5 17.6 92 0.8 CALM 0 0 0 0 1020.0 - 0.0
29/02:00am 19.6 22.3 17.8 89 1.1 CALM 0 0 0 0 1020.2 - 0.0
29/01:30am 19.5 22.3 17.9 90 1.0 CALM 0 0 0 0 1020.6 - 0.0
29/01:00am 21.5 24.1 17.6 78 2.4 CALM 0 0 0 0 1020.8 - 0.0
29/12:30am 21.8 24.4 17.4 76 2.7 CALM 0 0 0 0 1020.8 - 0.0
 
Date/Time
EST
Temp
°C
App
Temp
°C
Dew
Point
Rel
Hum
%
Delta-T
°C
Wind Press
QNH
hPa
Press
MSL
hPa
Rain
since 9 am
mm
Dir
 
Spd
km/h
Gust
km/h
Spd
kts
Gust
kts
28/11:30pm 21.8 23.4 17.9 78 2.4 E 6 7 3 4 1021.1 - 0.0
28/11:00pm 22.3 23.7 17.8 75 2.8 SSE 7 9 4 5 1021.4 - 0.0
28/10:30pm 22.5 24.0 17.5 73 3.1 SE 6 7 3 4 1021.6 - 0.0
28/10:00pm 22.8 24.1 17.5 72 3.3 E 7 9 4 5 1021.4 - 0.0
28/09:30pm 22.8 23.9 17.1 70 3.5 ESE 7 11 4 6 1021.4 - 0.0
28/09:00pm 22.8 23.6 16.4 67 3.9 SE 7 7 4 4 1021.5 1021.5 0.0
28/08:30pm 23.4 23.3 15.0 59 5.0 ENE 9 11 5 6 1021.3 - 0.0
28/08:00pm 23.1 23.1 15.2 61 4.7 E 9 11 5 6 1021.1 - 0.0
28/07:30pm 23.0 22.4 14.5 58 5.0 E 11 17 6 9 1020.7 - 0.0
28/07:00pm 23.3 22.1 13.9 55 5.5 E 13 15 7 8 1020.2 - 0.0
28/06:30pm 23.9 22.2 13.6 52 6.0 E 15 19 8 10 1019.7 - 0.0
28/06:00pm 24.5 22.0 13.5 50 6.4 E 19 26 10 14 1019.2 1019.1 0.0
28/05:30pm 25.4 21.6 13.6 48 6.9 ENE 26 33 14 18 1018.8 - 0.0
28/05:00pm 26.2 23.0 13.2 44 7.6 ENE 22 32 12 17 1018.5 - 0.0
28/04:30pm 26.9 23.7 15.2 48 7.1 NE 26 32 14 17 1018.2 - 0.0
28/04:00pm 27.6 25.2 16.5 50 6.9 ENE 24 32 13 17 1018.1 - 0.0
28/03:30pm 27.8 25.5 16.7 50 6.9 E 24 30 13 16 1017.9 - 0.0
28/03:00pm 28.0 25.8 17.9 54 6.4 ENE 26 33 14 18 1017.9 1017.8 0.0
28/02:30pm 27.9 26.6 18.1 55 6.2 NE 22 28 12 15 1018.2 - 0.0
28/02:00pm 27.9 26.4 18.5 56 6.0 NE 24 32 13 17 1018.4 - 0.0
28/01:30pm 27.7 26.9 19.2 60 5.5 E 22 28 12 15 1018.7 - 0.0
28/01:00pm 27.8 27.5 19.1 59 5.6 ENE 19 26 10 14 1019.0 - 0.0
28/12:30pm 28.2 28.4 19.4 59 5.7 E 17 22 9 12 1019.3 - 0.0
28/12:00pm 27.9 28.7 19.8 61 5.3 E 15 24 8 13 1019.6 1019.5 0.0
28/11:30am 27.7 28.0 20.4 64 4.8 ENE 19 26 10 14 1020.1 - 0.0
28/11:00am 27.8 28.4 19.5 60 5.4 E 15 19 8 10 1020.6 - 0.0
28/10:30am 26.9 27.0 19.1 62 5.0 ENE 17 32 9 17 1021.0 - 0.0
28/10:00am 26.6 27.7 19.6 65 4.5 E 13 19 7 10 1021.2 - 0.0
28/09:30am 26.3 27.5 20.0 68 4.1 ESE 13 24 7 13 1021.1 - 0.0
28/09:00am 25.8 27.8 19.9 70 3.8 SE 9 15 5 8 1020.9 1020.9 0.0
28/08:30am 25.5 28.3 20.9 75 3.0 SSE 7 13 4 7 1020.9 - 0.0
28/08:00am 23.6 26.2 20.4 82 2.1 SSW 7 9 4 5 1020.7 - 0.0
28/07:30am 22.8 25.3 20.3 86 1.6 SSW 7 9 4 5 1020.4 - 0.0
28/07:00am 22.0 25.8 20.1 89 1.2 CALM 0 0 0 0 1019.8 - 0.0
28/06:30am 21.7 25.5 20.1 91 1.0 CALM 0 0 0 0 1019.3 - 0.0
28/06:00am 21.7 25.0 20.0 90 1.1 SSW 2 9 1 5 1019.1 1019.0 0.0
28/05:30am 21.3 25.1 20.1 93 0.8 CALM 0 0 0 0 1018.8 - 0.0
28/05:00am 20.8 24.5 20.0 95 0.5 CALM 0 0 0 0 1018.6 - 0.0
28/04:30am 21.2 23.7 19.8 92 0.9 SSW 6 7 3 4 1018.3 - 0.0
28/04:00am 21.3 23.7 19.7 91 1.0 SSW 6 7 3 4 1018.1 - 0.0
28/03:30am 22.0 24.4 20.0 88 1.3 SSW 7 9 4 5 1017.9 - 0.0
28/03:00am 22.3 26.1 20.1 87 1.4 CALM 0 0 0 0 1017.9 1017.8 0.0
28/02:30am 22.4 26.4 20.5 89 1.2 CALM 0 0 0 0 1017.9 - 0.0
28/02:00am 22.3 26.4 20.8 91 1.0 CALM 0 0 0 0 1017.9 - 0.0
28/01:30am 22.3 25.1 20.4 89 1.2 S 6 7 3 4 1018.0 - 0.0
28/01:00am 22.0 25.2 19.8 87 1.4 S 2 9 1 5 1018.3 - 0.0
28/12:30am 22.3 25.7 20.1 87 1.4 S 2 7 1 4 1018.4 - 0.0
28/12:00am 22.5 24.9 20.0 86 1.6 S 7 7 4 4 1018.5 1018.4 0.0
 
Date/Time
EST
Temp
°C
App
Temp
°C
Dew
Point
Rel
Hum
%
Delta-T
°C
Wind Press
QNH
hPa
Press
MSL
hPa
Rain
since 9 am
mm
Dir
 
Spd
km/h
Gust
km/h
Spd
kts
Gust
kts
27/11:30pm 22.4 25.5 20.2 87 1.4 SSE 4 7 2 4 1018.8 - 0.0
27/11:00pm 22.6 25.6 20.0 85 1.7 S 4 9 2 5 1018.9 - 0.0
27/10:30pm 22.6 25.2 20.1 86 1.6 S 6 7 3 4 1019.1 - 0.0
27/10:00pm 22.9 25.4 20.3 85 1.7 S 7 9 4 5 1019.2 - 0.0
27/09:30pm 22.8 26.3 20.3 86 1.6 SSE 2 6 1 3 1019.2 - 0.0
27/09:00pm 22.8 25.3 20.3 86 1.6 SSE 7 7 4 4 1019.3 1019.2 0.0
27/08:30pm 23.6 26.2 20.4 82 2.1 ESE 7 9 4 5 1019.2 - 0.0
27/08:00pm 24.2 25.9 20.2 78 2.6 E 11 19 6 10 1018.8 - 0.0
27/07:30pm 24.5 24.3 19.3 73 3.3 ENE 19 26 10 14 1018.3 - 0.0
27/07:00pm 24.8 23.6 18.5 68 4.0 ENE 22 30 12 16 1017.7 - 0.0
27/06:30pm 25.1 23.9 18.5 67 4.2 ENE 22 28 12 15 1017.2 - 0.0
27/06:00pm 25.5 24.3 19.3 68 4.0 ENE 24 32 13 17 1016.7 1016.6 0.0
27/05:30pm 26.5 25.2 19.9 67 4.3 ENE 26 39 14 21 1016.3 - 0.0
27/05:00pm 27.6 26.0 20.1 63 4.9 ENE 28 35 15 19 1015.8 - 0.0
27/04:30pm 28.6 27.6 20.4 61 5.4 ENE 26 37 14 20 1015.4 - 0.0
27/04:00pm 31.0 31.5 16.5 41 9.1 E 9 15 5 8 1015.1 - 0.0
27/03:30pm 31.4 32.8 16.4 40 9.4 E 4 9 2 5 1015.0 - 0.0
27/03:00pm 31.5 31.9 16.4 40 9.5 N 9 13 5 7 1015.0 1014.9 0.0
27/02:30pm 31.2 31.3 17.4 43 8.8 WNW 13 17 7 9 1015.3 - 0.0
27/02:00pm 31.6 33.8 17.5 43 9.0 S 2 9 1 5 1015.6 - 0.0
27/01:30pm 30.9 32.1 17.4 44 8.6 NW 7 11 4 6 1016.1 - 0.0
27/01:00pm 31.0 34.0 19.2 49 7.7 NW 2 9 1 5 1016.5 - 0.0
27/12:30pm 29.8 32.5 20.2 56 6.3 W 6 11 3 6 1016.9 - 0.0
27/12:00pm 29.5 32.1 20.1 57 6.2 W 6 11 3 6 1017.4 1017.3 0.0
27/11:30am 28.8 31.3 21.0 62 5.2 WNW 9 13 5 7 1018.0 - 0.0
27/11:00am 28.4 32.4 22.0 68 4.3 WNW 4 9 2 5 1018.5 - 0.0
27/10:30am 26.9 31.6 22.0 74 3.3 CALM 0 7 0 4 1018.8 - 0.0
27/10:00am 25.9 29.1 21.7 77 2.8 NW 7 11 4 6 1019.0 - 0.0
27/09:30am 24.5 27.5 21.9 85 1.7 NW 9 13 5 7 1019.2 - 0.0
27/09:00am 24.0 27.4 22.0 88 1.3 NNW 7 9 4 5 1019.2 1019.1 0.4
27/08:30am 23.5 28.1 22.5 94 0.7 W 2 7 1 4 1018.9 - 0.4
27/08:00am 23.3 27.7 22.1 93 0.8 N 2 7 1 4 1018.8 - 0.4
27/07:30am 22.8 27.5 21.9 95 0.6 CALM 0 4 0 2 1018.5 - 0.4
27/07:00am 22.6 27.2 21.7 95 0.6 CALM 0 0 0 0 1018.1 - 0.4
27/06:30am 22.4 26.5 21.6 95 0.5 SSW 2 7 1 4 1017.6 - 0.4
27/06:00am 22.3 26.8 21.5 95 0.5 CALM 0 0 0 0 1017.3 1017.2 0.4
27/05:30am 22.0 26.4 21.4 96 0.4 CALM 0 0 0 0 1017.0 - 0.4
27/05:22am 21.9 26.2 21.1 95 0.5 CALM 0 6 0 3 1016.9 - 0.4
27/05:00am 21.7 24.8 21.1 96 0.4 NW 6 7 3 4 1016.6 - 0.4
27/04:30am 21.6 24.5 21.0 96 0.4 N 7 9 4 5 1016.1 - 0.4
27/04:00am 21.5 25.7 21.0 97 0.3 CALM 0 0 0 0 1016.1 - 0.4
27/03:39am 21.8 26.0 21.0 95 0.5 CALM 0 0 0 0 1016.1 - 0.4
27/03:30am 22.1 26.5 21.3 95 0.5 CALM 0 0 0 0 1016.1 - 0.4
27/03:00am 22.7 27.2 21.6 93 0.7 CALM 0 0 0 0 1016.2 1016.1 0.4
27/02:30am 22.3 26.8 21.5 95 0.5 CALM 0 0 0 0 1016.3 - 0.4
27/02:00am 22.3 26.8 21.5 95 0.5 CALM 0 0 0 0 1016.5 - 0.4
27/01:30am 22.5 26.9 21.4 93 0.7 CALM 0 0 0 0 1016.7 - 0.4
27/01:00am 22.2 26.6 21.4 95 0.5 CALM 0 0 0 0 1017.1 - 0.4
27/12:54am 22.2 26.6 21.4 95 0.5 CALM 0 0 0 0 1017.2 - 0.4
27/12:30am 22.1 26.5 21.3 95 0.5 CALM 0 6 0 3 1017.3 - 0.4
27/12:00am 22.4 26.9 21.5 95 0.6 CALM 0 0 0 0 1017.5 1017.4 0.4
 
Date/Time
EST
Temp
°C
App
Temp
°C
Dew
Point
Rel
Hum
%
Delta-T
°C
Wind Press
QNH
hPa
Press
MSL
hPa
Rain
since 9 am
mm
Dir
 
Spd
km/h
Gust
km/h
Spd
kts
Gust
kts
26/11:30pm 22.7 27.2 21.5 93 0.8 CALM 0 0 0 0 1017.6 - 0.4
26/11:00pm 22.3 25.4 21.5 95 0.5 N 7 11 4 6 1017.5 - 0.4
26/10:30pm 22.9 27.5 21.8 93 0.7 CALM 0 0 0 0 1017.6 - 0.4

Other Formats:

Comma delimited format used in spreadsheet applications
http://www.bom.gov.au/fwo/IDQ60801/IDQ60801.94568.axf

JavaScript Object Notation format (JSON) in row-major order
http://www.bom.gov.au/fwo/IDQ60801/IDQ60801.94568.json